createdAt,value
2023-04-06T00:01:40.842Z,4.49
2023-04-06T00:04:09.594Z,4.47
2023-04-06T00:06:38.096Z,4.43
2023-04-06T00:09:09.713Z,4.39
2023-04-06T00:11:39.634Z,4.37
2023-04-06T00:14:09.142Z,4.33
2023-04-06T00:16:37.592Z,4.34
2023-04-06T00:19:10.845Z,4.32
2023-04-06T00:21:39.566Z,4.32
2023-04-06T00:24:08.368Z,4.31
2023-04-06T00:26:38.149Z,4.30
2023-04-06T00:29:09.661Z,4.28
2023-04-06T00:31:38.219Z,4.26
2023-04-06T00:34:07.463Z,4.24
2023-04-06T00:36:38.689Z,4.23
2023-04-06T00:39:10.309Z,4.19
2023-04-06T00:41:41.562Z,4.17
2023-04-06T00:44:10.014Z,4.14
2023-04-06T00:46:38.380Z,4.08
2023-04-06T00:49:07.088Z,4.02
2023-04-06T00:51:35.708Z,4.06
2023-04-06T00:54:04.205Z,4.03
2023-04-06T00:56:32.979Z,4.00
2023-04-06T00:59:02.978Z,3.99
2023-04-06T01:01:33.468Z,3.97
2023-04-06T01:04:07.513Z,3.93
2023-04-06T01:06:35.939Z,3.93
2023-04-06T01:09:04.547Z,3.92
2023-04-06T01:11:33.367Z,3.88
2023-04-06T01:14:03.152Z,3.85
2023-04-06T01:16:31.678Z,3.83
2023-04-06T01:19:01.719Z,3.80
2023-04-06T01:21:30.162Z,3.79
2023-04-06T01:23:59.970Z,3.76
2023-04-06T01:26:30.314Z,3.73
2023-04-06T01:29:01.687Z,3.64
2023-04-06T01:31:30.510Z,3.70
2023-04-06T01:34:01.900Z,3.68
2023-04-06T01:36:30.705Z,3.66
2023-04-06T01:39:00.806Z,3.66
2023-04-06T01:41:29.281Z,3.62
2023-04-06T01:43:57.695Z,3.62
2023-04-06T01:46:26.191Z,3.60
2023-04-06T01:48:54.619Z,3.60
2023-04-06T01:51:23.019Z,3.56
2023-04-06T01:53:51.436Z,3.56
2023-04-06T01:56:21.341Z,3.52
2023-04-06T01:58:49.804Z,3.50
2023-04-06T02:01:18.303Z,3.48
2023-04-06T02:03:46.841Z,3.45
2023-04-06T02:06:15.365Z,3.43
2023-04-06T02:08:46.421Z,3.40
2023-04-06T02:11:17.746Z,3.38
2023-04-06T02:13:47.540Z,3.34
2023-04-06T02:16:16.908Z,3.31
2023-04-06T02:18:45.480Z,3.29
2023-04-06T02:21:13.891Z,3.27
2023-04-06T02:23:42.284Z,3.26
2023-04-06T02:26:10.719Z,3.22
2023-04-06T02:28:39.160Z,3.19
2023-04-06T02:31:08.999Z,3.17
2023-04-06T02:33:37.394Z,3.16
2023-04-06T02:36:06.482Z,3.14
2023-04-06T02:38:35.017Z,3.13
2023-04-06T02:41:03.435Z,3.12
2023-04-06T02:43:34.644Z,3.10
2023-04-06T02:46:05.358Z,3.11
2023-04-06T02:48:37.234Z,3.10
2023-04-06T02:51:06.244Z,3.08
2023-04-06T02:53:34.757Z,3.07
2023-04-06T02:56:05.819Z,3.05
2023-04-06T02:58:37.920Z,3.03
2023-04-06T03:01:06.692Z,3.00
2023-04-06T03:03:36.659Z,2.98
2023-04-06T03:06:08.420Z,2.94
2023-04-06T03:08:36.896Z,2.94
2023-04-06T03:11:05.547Z,2.92
2023-04-06T03:13:34.011Z,2.82
2023-04-06T03:16:02.611Z,2.88
2023-04-06T03:18:31.062Z,2.86
2023-04-06T03:21:01.378Z,2.86
2023-04-06T03:23:29.843Z,2.84
2023-04-06T03:26:01.349Z,2.82
2023-04-06T03:28:29.826Z,2.81
2023-04-06T03:30:58.293Z,2.79
2023-04-06T03:33:28.030Z,2.78
2023-04-06T03:35:56.684Z,2.76
2023-04-06T03:38:26.515Z,2.73
2023-04-06T03:40:54.917Z,2.71
2023-04-06T03:43:23.349Z,2.70
2023-04-06T03:45:51.994Z,2.68
2023-04-06T03:48:20.398Z,2.65
2023-04-06T03:50:48.774Z,2.62
2023-04-06T03:53:17.245Z,2.62
2023-04-06T03:55:47.026Z,2.59
2023-04-06T03:58:15.685Z,2.57
2023-04-06T04:00:44.077Z,2.57
2023-04-06T04:03:14.724Z,2.53
2023-04-06T04:05:43.260Z,2.50
2023-04-06T04:08:11.770Z,2.48
2023-04-06T04:10:40.318Z,2.47
2023-04-06T04:13:10.302Z,2.45
2023-04-06T04:15:38.704Z,2.43
2023-04-06T04:18:07.169Z,2.40
2023-04-06T04:20:35.733Z,2.40
2023-04-06T04:23:04.114Z,2.37
2023-04-06T04:25:32.521Z,2.34
2023-04-06T04:28:00.936Z,2.32
2023-04-06T04:30:30.815Z,2.31
2023-04-06T04:32:59.495Z,2.32
2023-04-06T04:35:29.161Z,2.31
2023-04-06T04:37:57.605Z,2.30
2023-04-06T04:40:26.130Z,2.28
2023-04-06T04:42:54.606Z,2.27
2023-04-06T04:45:23.087Z,2.24
2023-04-06T04:47:52.990Z,2.23
2023-04-06T04:50:21.420Z,2.21
2023-04-06T04:52:49.870Z,2.20
2023-04-06T04:55:18.610Z,2.19
2023-04-06T04:57:47.062Z,2.19
2023-04-06T05:00:16.757Z,2.17
2023-04-06T05:02:45.254Z,2.18
2023-04-06T05:05:15.124Z,2.16
2023-04-06T05:07:43.637Z,2.15
2023-04-06T05:10:12.642Z,2.13
2023-04-06T05:12:41.326Z,2.14
2023-04-06T05:15:11.340Z,2.14
2023-04-06T05:17:39.944Z,2.13
2023-04-06T05:20:09.695Z,2.15
2023-04-06T05:22:39.779Z,2.15
2023-04-06T05:25:09.440Z,2.15
2023-04-06T05:27:37.919Z,2.17
2023-04-06T05:30:08.248Z,2.16
2023-04-06T05:32:37.095Z,2.21
2023-04-06T05:35:06.249Z,2.21
2023-04-06T05:37:34.677Z,2.21
2023-04-06T05:40:05.552Z,2.24
2023-04-06T05:42:39.382Z,2.26
2023-04-06T05:45:09.420Z,2.29
2023-04-06T05:47:37.971Z,2.32
2023-04-06T05:50:10.687Z,2.36
2023-04-06T05:52:39.115Z,2.40
2023-04-06T05:55:10.748Z,2.43
2023-04-06T05:57:39.219Z,2.49
2023-04-06T06:00:10.870Z,2.55
2023-04-06T06:02:40.637Z,2.61
2023-04-06T06:05:10.731Z,2.65
2023-04-06T06:07:39.418Z,2.71
2023-04-06T06:10:11.414Z,2.76
2023-04-06T06:12:39.853Z,2.83
2023-04-06T06:15:09.972Z,2.91
2023-04-06T06:17:39.202Z,2.97
2023-04-06T06:20:09.749Z,3.08
2023-04-06T06:22:38.324Z,3.17
2023-04-06T06:25:08.639Z,3.28
2023-04-06T06:27:37.589Z,3.40
2023-04-06T06:30:07.620Z,3.51
2023-04-06T06:32:36.156Z,3.66
2023-04-06T06:35:04.893Z,3.80
2023-04-06T06:37:33.295Z,3.95
2023-04-06T06:40:01.811Z,4.11
2023-04-06T06:42:31.607Z,4.28
2023-04-06T06:45:05.284Z,4.44
2023-04-06T06:47:33.790Z,4.60
2023-04-06T06:50:03.869Z,4.77
2023-04-06T06:52:32.354Z,4.94
2023-04-06T06:55:01.252Z,5.10
2023-04-06T06:57:31.112Z,5.27
2023-04-06T07:00:00.997Z,5.44
2023-04-06T07:02:29.495Z,5.64
2023-04-06T07:04:58.035Z,5.83
2023-04-06T07:07:26.455Z,6.00
2023-04-06T07:09:54.897Z,6.20
2023-04-06T07:12:23.391Z,6.40
2023-04-06T07:14:53.218Z,6.59
2023-04-06T07:17:21.695Z,6.78
2023-04-06T07:19:50.161Z,6.95
2023-04-06T07:22:18.652Z,7.14
2023-04-06T07:24:47.105Z,7.32
2023-04-06T07:27:17.382Z,7.54
2023-04-06T07:29:45.899Z,7.72
2023-04-06T07:32:15.915Z,7.88
2023-04-06T07:34:46.123Z,8.06
2023-04-06T07:37:14.626Z,8.28
2023-04-06T07:39:43.322Z,8.52
2023-04-06T07:42:12.400Z,8.69
2023-04-06T07:44:40.936Z,8.86
2023-04-06T07:47:09.376Z,9.07
2023-04-06T07:49:39.219Z,9.24
2023-04-06T07:52:07.724Z,9.37
2023-04-06T07:54:36.249Z,9.54
2023-04-06T07:57:04.731Z,9.68
2023-04-06T07:59:33.247Z,9.88
2023-04-06T08:02:01.914Z,10.06
2023-04-06T08:04:30.677Z,10.21
2023-04-06T08:07:00.739Z,10.40
2023-04-06T08:09:29.172Z,10.57
2023-04-06T08:11:57.580Z,10.71
2023-04-06T08:14:26.083Z,10.86
2023-04-06T08:16:54.491Z,11.03
2023-04-06T08:19:23.131Z,11.20
2023-04-06T08:21:52.386Z,11.39
2023-04-06T08:24:22.281Z,11.60
2023-04-06T08:26:51.676Z,11.75
2023-04-06T08:29:20.358Z,11.93
2023-04-06T08:31:48.810Z,12.11
2023-04-06T08:34:17.437Z,12.28
2023-04-06T08:36:46.577Z,12.44
2023-04-06T08:39:15.085Z,12.62
2023-04-06T08:41:46.013Z,12.76
2023-04-06T08:44:14.706Z,12.94
2023-04-06T08:46:43.221Z,13.07
2023-04-06T08:49:11.750Z,13.21
2023-04-06T08:51:40.461Z,13.38
2023-04-06T08:54:09.065Z,13.55
2023-04-06T08:56:41.297Z,13.70
2023-04-06T08:59:12.641Z,13.89
2023-04-06T09:01:46.934Z,14.09
2023-04-06T09:04:16.059Z,14.19
2023-04-06T09:06:45.874Z,14.33
2023-04-06T09:09:14.436Z,14.42
2023-04-06T09:11:51.154Z,14.53
2023-04-06T09:14:37.566Z,14.71
2023-04-06T09:17:07.233Z,14.84
2023-04-06T09:19:35.751Z,15.01
2023-04-06T09:22:06.038Z,15.14
2023-04-06T09:24:46.114Z,15.33
2023-04-06T09:27:15.192Z,15.46
2023-04-06T09:29:45.847Z,15.58
2023-04-06T09:32:17.872Z,15.70
2023-04-06T09:34:50.831Z,15.74
2023-04-06T09:37:21.573Z,15.82
2023-04-06T09:39:52.581Z,15.85
2023-04-06T09:42:27.599Z,15.90
2023-04-06T09:44:57.446Z,15.95
2023-04-06T09:47:29.271Z,16.02
2023-04-06T09:50:00.212Z,16.06
2023-04-06T09:52:34.282Z,16.12
2023-04-06T09:55:06.376Z,16.20
2023-04-06T09:57:40.241Z,16.18
2023-04-06T10:00:13.173Z,16.21
2023-04-06T10:02:52.881Z,16.29
2023-04-06T10:05:32.698Z,16.37
2023-04-06T10:08:08.469Z,16.44
2023-04-06T10:10:37.186Z,16.56
2023-04-06T10:13:07.303Z,16.64
2023-04-06T10:15:37.132Z,16.77
2023-04-06T10:18:08.544Z,16.85
2023-04-06T10:20:45.929Z,16.95
2023-04-06T10:23:22.115Z,17.06
2023-04-06T10:25:58.372Z,17.09
2023-04-06T10:28:28.373Z,17.17
2023-04-06T10:31:02.576Z,17.23
2023-04-06T10:33:31.505Z,17.34
2023-04-06T10:36:00.520Z,17.42
2023-04-06T10:38:41.776Z,17.52
2023-04-06T10:41:13.140Z,17.62
2023-04-06T10:43:43.591Z,17.66
2023-04-06T10:46:13.805Z,17.78
2023-04-06T10:48:44.854Z,17.79
2023-04-06T10:51:15.350Z,17.81
2023-04-06T10:53:45.508Z,17.87
2023-04-06T10:56:16.294Z,17.95
2023-04-06T10:58:48.677Z,17.99
2023-04-06T11:01:24.366Z,18.03
2023-04-06T11:03:54.871Z,18.08
2023-04-06T11:06:24.854Z,18.09
2023-04-06T11:08:54.334Z,18.16
2023-04-06T11:11:26.855Z,18.08
2023-04-06T11:13:57.536Z,18.13
2023-04-06T11:16:30.451Z,18.15
2023-04-06T11:19:00.750Z,18.19
2023-04-06T11:21:37.826Z,18.29
2023-04-06T11:24:10.840Z,18.36
2023-04-06T11:26:46.224Z,18.46
2023-04-06T11:29:15.920Z,18.54
2023-04-06T11:31:48.669Z,18.57
2023-04-06T11:34:20.103Z,18.62
2023-04-06T11:36:53.009Z,18.66
2023-04-06T11:39:24.784Z,18.74
2023-04-06T11:41:59.656Z,18.81
2023-04-06T11:44:36.586Z,18.88
2023-04-06T11:47:08.469Z,19.00
2023-04-06T11:49:40.733Z,19.03
2023-04-06T11:52:18.934Z,19.08
2023-04-06T11:54:48.374Z,19.12
2023-04-06T11:57:17.610Z,19.16
2023-04-06T11:59:46.337Z,19.16
2023-04-06T12:02:16.340Z,19.18
2023-04-06T12:04:44.914Z,19.21
2023-04-06T12:07:13.471Z,19.21
2023-04-06T12:09:41.953Z,19.20
2023-04-06T12:12:10.513Z,19.17
2023-04-06T12:14:38.984Z,19.17
2023-04-06T12:17:07.455Z,19.13
2023-04-06T12:19:37.281Z,19.16
2023-04-06T12:22:06.294Z,19.14
2023-04-06T12:24:34.830Z,19.12
2023-04-06T12:27:10.155Z,19.13
2023-04-06T12:29:39.466Z,19.17
2023-04-06T12:32:07.968Z,19.12
2023-04-06T12:34:37.840Z,19.16
2023-04-06T12:37:09.060Z,19.17
2023-04-06T12:39:37.530Z,19.21
2023-04-06T12:42:06.084Z,19.23
2023-04-06T12:44:34.653Z,19.19
2023-04-06T12:47:03.530Z,19.17
2023-04-06T12:49:32.769Z,19.09
2023-04-06T12:52:03.017Z,18.98
2023-04-06T12:54:31.499Z,18.86
2023-04-06T12:56:59.940Z,18.80
2023-04-06T12:59:29.175Z,18.69
2023-04-06T13:01:57.734Z,18.66
2023-04-06T13:04:27.367Z,18.60
2023-04-06T13:06:55.871Z,18.63
2023-04-06T13:09:25.854Z,18.63
2023-04-06T13:11:54.363Z,18.62
2023-04-06T13:14:22.883Z,18.63
2023-04-06T13:16:53.639Z,18.65
2023-04-06T13:19:22.715Z,18.62
2023-04-06T13:21:51.307Z,18.65
2023-04-06T13:24:20.560Z,18.67
2023-04-06T13:26:50.511Z,18.70
2023-04-06T13:29:19.029Z,18.70
2023-04-06T13:31:47.659Z,18.74
2023-04-06T13:34:16.352Z,18.73
2023-04-06T13:36:44.834Z,18.76
2023-04-06T13:39:13.352Z,18.78
2023-04-06T13:41:41.988Z,18.82
2023-04-06T13:44:11.943Z,18.89
2023-04-06T13:46:40.866Z,18.88
2023-04-06T13:49:09.437Z,18.81
2023-04-06T13:51:37.936Z,18.77
2023-04-06T13:54:07.003Z,18.73
2023-04-06T13:56:35.392Z,18.76
2023-04-06T13:59:05.595Z,18.73
2023-04-06T14:01:35.541Z,18.74
2023-04-06T14:04:04.125Z,18.71
2023-04-06T14:06:33.885Z,18.72
2023-04-06T14:09:02.366Z,18.72
2023-04-06T14:11:31.250Z,18.74
2023-04-06T14:13:59.647Z,18.73
2023-04-06T14:16:28.191Z,18.72
2023-04-06T14:18:58.964Z,18.67
2023-04-06T14:21:33.133Z,18.66
2023-04-06T14:24:02.793Z,18.58
2023-04-06T14:26:31.297Z,18.52
2023-04-06T14:29:01.082Z,18.47
2023-04-06T14:31:31.152Z,18.39
2023-04-06T14:34:03.422Z,18.35
2023-04-06T14:36:37.323Z,18.28
2023-04-06T14:39:06.875Z,18.23
2023-04-06T14:41:36.534Z,18.21
2023-04-06T14:44:05.970Z,18.19
2023-04-06T14:46:34.769Z,18.17
2023-04-06T14:49:04.716Z,18.13
2023-04-06T14:51:36.681Z,18.16
2023-04-06T14:54:05.667Z,18.16
2023-04-06T14:56:34.402Z,18.13
2023-04-06T14:59:04.256Z,18.10
2023-04-06T15:01:36.551Z,18.09
2023-04-06T15:04:07.838Z,18.06
2023-04-06T15:06:36.290Z,18.06
2023-04-06T15:09:04.843Z,18.07
2023-04-06T15:11:33.362Z,18.10
2023-04-06T15:14:03.297Z,18.10
2023-04-06T15:16:33.452Z,18.10
2023-04-06T15:19:02.442Z,18.09
2023-04-06T15:21:33.329Z,18.09
2023-04-06T15:24:01.698Z,18.10
2023-04-06T15:26:30.074Z,18.10
2023-04-06T15:28:58.565Z,18.11
2023-04-06T15:31:37.561Z,18.11
2023-04-06T15:34:09.040Z,18.12
2023-04-06T15:36:39.346Z,18.15
2023-04-06T15:39:09.968Z,18.08
2023-04-06T15:41:38.781Z,18.01
2023-04-06T15:44:07.354Z,17.98
2023-04-06T15:46:35.832Z,17.95
2023-04-06T15:49:04.570Z,17.91
2023-04-06T15:51:33.584Z,17.89
2023-04-06T15:54:03.522Z,17.86
2023-04-06T15:56:33.554Z,17.84
2023-04-06T15:59:03.968Z,17.81
2023-04-06T16:01:37.150Z,17.79
2023-04-06T16:04:11.348Z,17.75
2023-04-06T16:06:40.250Z,17.69
2023-04-06T16:09:10.034Z,17.64
2023-04-06T16:11:38.579Z,17.59
2023-04-06T16:14:07.202Z,17.51
2023-04-06T16:16:35.834Z,17.41
2023-04-06T16:19:04.319Z,17.33
2023-04-06T16:21:38.002Z,17.26
2023-04-06T16:24:06.989Z,17.18
2023-04-06T16:26:37.074Z,17.11
2023-04-06T16:29:05.636Z,17.06
2023-04-06T16:31:37.205Z,16.99
2023-04-06T16:34:05.747Z,16.91
2023-04-06T16:36:34.283Z,16.83
2023-04-06T16:39:03.524Z,16.77
2023-04-06T16:41:38.108Z,16.69
2023-04-06T16:44:06.763Z,16.62
2023-04-06T16:46:38.302Z,16.56
2023-04-06T16:49:07.368Z,16.47
2023-04-06T16:51:38.166Z,16.43
2023-04-06T16:54:06.851Z,16.36
2023-04-06T16:56:35.402Z,16.32
2023-04-06T16:59:08.175Z,16.24
2023-04-06T17:01:36.976Z,16.19
2023-04-06T17:04:05.706Z,16.12
2023-04-06T17:06:36.252Z,16.06
2023-04-06T17:09:04.923Z,16.00
2023-04-06T17:11:43.604Z,15.92
2023-04-06T17:14:16.210Z,15.85
2023-04-06T17:16:44.682Z,15.77
2023-04-06T17:19:13.157Z,15.69
2023-04-06T17:21:44.996Z,15.62
2023-04-06T17:24:13.389Z,15.56
2023-04-06T17:26:41.745Z,15.51
2023-04-06T17:29:10.182Z,15.42
2023-04-06T17:31:39.922Z,15.33
2023-04-06T17:34:08.313Z,15.27
2023-04-06T17:36:39.490Z,15.18
2023-04-06T17:39:08.330Z,15.08
2023-04-06T17:41:36.852Z,14.99
2023-04-06T17:44:05.557Z,14.91
2023-04-06T17:46:36.828Z,14.82
2023-04-06T17:49:08.462Z,14.75
2023-04-06T17:51:45.134Z,14.66
2023-04-06T17:54:13.720Z,14.60
2023-04-06T17:56:42.344Z,14.51
2023-04-06T17:59:11.627Z,14.42
2023-04-06T18:01:43.274Z,14.32
2023-04-06T18:04:13.180Z,14.22
2023-04-06T18:06:46.267Z,14.11
2023-04-06T18:09:15.017Z,14.02
2023-04-06T18:11:43.622Z,13.92
2023-04-06T18:14:13.533Z,13.80
2023-04-06T18:16:42.632Z,13.68
2023-04-06T18:19:12.400Z,13.56
2023-04-06T18:21:40.840Z,13.45
2023-04-06T18:24:12.313Z,13.33
2023-04-06T18:26:43.584Z,13.21
2023-04-06T18:29:11.938Z,13.10
2023-04-06T18:31:40.494Z,13.00
2023-04-06T18:34:08.852Z,12.89
2023-04-06T18:36:38.798Z,12.78
2023-04-06T18:39:07.194Z,12.69
2023-04-06T18:41:36.463Z,12.60
2023-04-06T18:44:05.136Z,12.49
2023-04-06T18:46:36.537Z,12.40
2023-04-06T18:49:05.530Z,12.31
2023-04-06T18:51:37.885Z,12.21
2023-04-06T18:54:07.721Z,12.13
2023-04-06T18:56:37.039Z,12.03
2023-04-06T18:59:05.697Z,11.92
2023-04-06T19:01:41.153Z,11.84
2023-04-06T19:04:11.344Z,11.75
2023-04-06T19:06:39.921Z,11.68
2023-04-06T19:09:09.811Z,11.60
2023-04-06T19:11:38.510Z,11.53
2023-04-06T19:14:07.102Z,11.45
2023-04-06T19:16:40.983Z,11.38
2023-04-06T19:19:09.790Z,11.32
2023-04-06T19:21:44.085Z,11.28
2023-04-06T19:24:14.054Z,11.20
2023-04-06T19:26:43.521Z,11.15
2023-04-06T19:29:12.344Z,11.10
2023-04-06T19:31:40.817Z,11.05
2023-04-06T19:34:09.424Z,10.97
2023-04-06T19:36:40.579Z,10.91
2023-04-06T19:39:08.874Z,10.84
2023-04-06T19:41:40.593Z,10.78
2023-04-06T19:44:08.943Z,10.72
2023-04-06T19:46:43.324Z,10.64
2023-04-06T19:49:11.700Z,10.59
2023-04-06T19:51:43.161Z,10.52
2023-04-06T19:54:11.539Z,10.49
2023-04-06T19:56:41.372Z,10.45
2023-04-06T19:59:11.069Z,10.40
2023-04-06T20:01:39.667Z,10.35
2023-04-06T20:04:08.382Z,10.32
2023-04-06T20:06:36.869Z,10.26
2023-04-06T20:09:05.462Z,10.23
2023-04-06T20:11:37.822Z,10.16
2023-04-06T20:14:07.588Z,10.11
2023-04-06T20:16:41.843Z,10.02
2023-04-06T20:19:10.320Z,9.95
2023-04-06T20:21:41.121Z,9.85
2023-04-06T20:24:10.909Z,9.81
2023-04-06T20:26:39.288Z,9.75
2023-04-06T20:29:09.095Z,9.69
2023-04-06T20:31:37.472Z,9.65
2023-04-06T20:34:06.293Z,9.61
2023-04-06T20:36:38.281Z,9.55
2023-04-06T20:39:07.066Z,9.46
2023-04-06T20:41:35.528Z,9.43
2023-04-06T20:44:05.089Z,9.36
2023-04-06T20:46:36.181Z,9.29
2023-04-06T20:49:05.018Z,9.23
2023-04-06T20:51:33.437Z,9.14
2023-04-06T20:54:02.136Z,9.10
2023-04-06T20:56:35.957Z,9.03
2023-04-06T20:59:05.190Z,8.96
2023-04-06T21:01:36.296Z,8.89
2023-04-06T21:04:04.860Z,8.82
2023-04-06T21:06:38.241Z,8.77
2023-04-06T21:09:06.664Z,8.69
2023-04-06T21:11:35.043Z,8.67
2023-04-06T21:14:03.407Z,8.61
2023-04-06T21:16:42.089Z,8.54
2023-04-06T21:19:10.419Z,8.53
2023-04-06T21:21:38.757Z,8.48
2023-04-06T21:24:07.778Z,8.44
2023-04-06T21:26:37.039Z,8.40
2023-04-06T21:29:05.621Z,8.34
2023-04-06T21:31:41.003Z,8.28
2023-04-06T21:34:13.173Z,8.24
2023-04-06T21:36:42.717Z,8.21
2023-04-06T21:39:11.589Z,8.17
2023-04-06T21:41:40.755Z,8.14
2023-04-06T21:44:09.098Z,8.09
2023-04-06T21:46:38.881Z,8.04
2023-04-06T21:49:07.278Z,8.00
2023-04-06T21:51:37.942Z,7.96
2023-04-06T21:54:06.566Z,7.92
2023-04-06T21:56:34.911Z,7.88
2023-04-06T21:59:03.238Z,7.83
2023-04-06T22:01:34.649Z,7.78
2023-04-06T22:04:04.426Z,7.74
2023-04-06T22:06:32.848Z,7.70
2023-04-06T22:09:02.001Z,7.65
2023-04-06T22:11:36.123Z,7.61
2023-04-06T22:14:06.160Z,7.54
2023-04-06T22:16:34.637Z,7.50
2023-04-06T22:19:04.491Z,7.44
2023-04-06T22:21:32.886Z,7.40
2023-04-06T22:24:01.307Z,7.35
2023-04-06T22:26:29.773Z,7.32
2023-04-06T22:28:58.511Z,7.29
2023-04-06T22:31:27.263Z,7.26
2023-04-06T22:33:55.746Z,7.22
2023-04-06T22:36:26.806Z,7.20
2023-04-06T22:38:55.081Z,7.18
2023-04-06T22:41:26.703Z,7.14
2023-04-06T22:43:55.132Z,7.10
2023-04-06T22:46:23.608Z,7.07
2023-04-06T22:48:51.949Z,7.06
2023-04-06T22:51:20.699Z,7.02
2023-04-06T22:53:50.442Z,6.98
2023-04-06T22:56:18.754Z,6.95
2023-04-06T22:58:47.316Z,6.92
2023-04-06T23:01:15.699Z,6.90
2023-04-06T23:03:52.402Z,6.86
2023-04-06T23:06:22.007Z,6.85
2023-04-06T23:08:51.752Z,6.80
2023-04-06T23:11:20.015Z,6.77
2023-04-06T23:13:48.337Z,6.72
2023-04-06T23:16:16.701Z,6.70
2023-04-06T23:18:45.520Z,6.68
2023-04-06T23:21:17.027Z,6.65
2023-04-06T23:23:45.350Z,6.60
2023-04-06T23:26:15.010Z,6.58
2023-04-06T23:28:43.553Z,6.55
2023-04-06T23:31:11.837Z,6.53
2023-04-06T23:33:40.091Z,6.50
2023-04-06T23:36:08.781Z,6.47
2023-04-06T23:38:37.400Z,6.43
2023-04-06T23:41:06.398Z,6.42
2023-04-06T23:43:36.094Z,6.39
2023-04-06T23:46:04.525Z,6.36
2023-04-06T23:48:35.886Z,6.33
2023-04-06T23:51:04.271Z,6.32
2023-04-06T23:53:32.831Z,6.28
2023-04-06T23:56:01.325Z,6.24
2023-04-06T23:58:29.731Z,6.21
